createdAt,value
2019-01-06T00:01:49.077Z,13.32
2019-01-06T00:04:57.291Z,12.68
2019-01-06T00:07:55.497Z,11.90
2019-01-06T00:10:45.451Z,14.05
2019-01-06T00:13:59.520Z,13.10
2019-01-06T00:16:47.449Z,13.25
2019-01-06T00:19:42.958Z,10.48
2019-01-06T00:22:37.654Z,12.85
2019-01-06T00:25:31.431Z,11.15
2019-01-06T00:28:21.838Z,13.40
2019-01-06T00:31:11.120Z,9.50
2019-01-06T00:34:09.385Z,12.43
2019-01-06T00:36:57.524Z,10.70
2019-01-06T00:39:54.269Z,10.88
2019-01-06T00:42:38.131Z,11.30
2019-01-06T00:45:31.381Z,10.50
2019-01-06T00:48:20.551Z,9.13
2019-01-06T00:51:22.002Z,11.05
2019-01-06T00:54:17.408Z,13.20
2019-01-06T00:57:16.407Z,13.18
2019-01-06T01:00:04.720Z,10.45
2019-01-06T01:02:52.738Z,10.48
2019-01-06T01:05:41.088Z,10.72
2019-01-06T01:08:29.828Z,9.68
2019-01-06T01:11:18.053Z,11.90
2019-01-06T01:14:10.602Z,10.82
2019-01-06T01:17:04.277Z,9.23
2019-01-06T01:19:48.209Z,10.25
2019-01-06T01:22:44.056Z,8.70
2019-01-06T01:25:42.834Z,9.70
2019-01-06T01:28:41.422Z,9.85
2019-01-06T01:31:30.588Z,9.23
2019-01-06T01:34:21.084Z,9.05
2019-01-06T01:37:13.423Z,7.83
2019-01-06T01:40:02.430Z,9.88
2019-01-06T01:43:07.467Z,8.78
2019-01-06T01:45:55.797Z,9.70
2019-01-06T01:49:04.398Z,8.03
2019-01-06T01:51:55.000Z,11.03
2019-01-06T01:54:43.346Z,9.48
2019-01-06T01:57:28.622Z,6.33
2019-01-06T02:00:24.044Z,8.00
2019-01-06T02:03:16.760Z,10.58
2019-01-06T02:06:07.846Z,6.40
2019-01-06T02:09:00.764Z,8.93
2019-01-06T02:11:51.579Z,6.72
2019-01-06T02:14:40.433Z,10.23
2019-01-06T02:17:29.904Z,10.78
2019-01-06T02:20:19.590Z,9.85
2019-01-06T02:23:14.071Z,8.40
2019-01-06T02:26:04.494Z,6.70
2019-01-06T02:28:53.020Z,9.45
2019-01-06T02:31:43.721Z,8.73
2019-01-06T02:34:41.917Z,9.83
2019-01-06T02:37:25.541Z,12.63
2019-01-06T02:40:14.035Z,8.58
2019-01-06T02:43:03.666Z,10.10
2019-01-06T02:45:53.141Z,8.43
2019-01-06T02:48:41.601Z,6.55
2019-01-06T02:51:47.213Z,11.18
2019-01-06T02:54:48.302Z,8.25
2019-01-06T02:57:50.158Z,8.35
2019-01-06T03:00:38.303Z,8.50
2019-01-06T03:03:34.232Z,10.38
2019-01-06T03:06:40.307Z,9.98
2019-01-06T03:09:30.993Z,10.60
2019-01-06T03:12:26.615Z,7.28
2019-01-06T03:15:19.269Z,6.80
2019-01-06T03:18:12.023Z,6.45
2019-01-06T03:21:02.825Z,6.72
2019-01-06T03:24:05.102Z,8.93
2019-01-06T03:26:52.524Z,9.13
2019-01-06T03:29:51.524Z,12.60
2019-01-06T03:32:40.497Z,10.32
2019-01-06T03:35:48.496Z,7.95
2019-01-06T03:38:36.441Z,8.90
2019-01-06T03:41:33.501Z,7.47
2019-01-06T03:44:37.700Z,5.53
2019-01-06T03:47:27.403Z,8.80
2019-01-06T03:50:17.166Z,5.75
2019-01-06T03:53:05.519Z,9.75
2019-01-06T03:55:53.876Z,7.20
2019-01-06T03:58:56.270Z,5.67
2019-01-06T04:01:53.492Z,8.38
2019-01-06T04:04:51.978Z,7.35
2019-01-06T04:08:02.162Z,7.58
2019-01-06T04:11:04.219Z,7.35
2019-01-06T04:13:50.714Z,10.28
2019-01-06T04:16:53.094Z,6.83
2019-01-06T04:19:54.457Z,9.75
2019-01-06T04:22:42.495Z,7.62
2019-01-06T04:25:31.959Z,7.80
2019-01-06T04:28:32.190Z,8.25
2019-01-06T04:31:24.121Z,9.85
2019-01-06T04:34:13.607Z,7.60
2019-01-06T04:37:15.577Z,7.00
2019-01-06T04:40:04.017Z,9.20
2019-01-06T04:42:54.624Z,7.92
2019-01-06T04:45:43.171Z,9.75
2019-01-06T04:48:32.335Z,8.90
2019-01-06T04:51:20.581Z,11.03
2019-01-06T04:54:25.416Z,8.53
2019-01-06T04:57:26.571Z,8.85
2019-01-06T05:00:14.965Z,10.95
2019-01-06T05:03:04.486Z,7.15
2019-01-06T05:05:57.049Z,8.03
2019-01-06T05:08:45.501Z,8.60
2019-01-06T05:11:36.198Z,8.05
2019-01-06T05:14:35.097Z,6.95
2019-01-06T05:17:23.332Z,6.12
2019-01-06T05:20:29.193Z,7.37
2019-01-06T05:23:18.149Z,8.00
2019-01-06T05:26:07.047Z,8.70
2019-01-06T05:29:15.025Z,8.40
2019-01-06T05:32:03.682Z,8.85
2019-01-06T05:35:06.984Z,6.70
2019-01-06T05:38:12.015Z,7.85
2019-01-06T05:41:10.714Z,8.68
2019-01-06T05:44:19.847Z,8.83
2019-01-06T05:47:20.278Z,9.40
2019-01-06T05:50:08.634Z,8.40
2019-01-06T05:53:13.362Z,8.28
2019-01-06T05:56:05.903Z,20.97
2019-01-06T05:58:58.353Z,23.07
2019-01-06T06:01:54.067Z,12.05
2019-01-06T06:04:42.118Z,13.10
2019-01-06T06:07:30.769Z,20.48
2019-01-06T06:10:20.662Z,21.93
2019-01-06T06:13:08.694Z,20.97
2019-01-06T06:16:06.972Z,19.00
2019-01-06T06:18:57.477Z,19.00
2019-01-06T06:21:52.887Z,18.65
2019-01-06T06:24:47.168Z,26.60
2019-01-06T06:27:41.147Z,24.12
2019-01-06T06:30:29.608Z,23.12
2019-01-06T06:33:34.343Z,20.55
2019-01-06T06:36:24.225Z,31.57
2019-01-06T06:39:18.617Z,35.08
2019-01-06T06:42:14.489Z,34.13
2019-01-06T06:44:58.892Z,36.30
2019-01-06T06:47:47.746Z,30.65
2019-01-06T06:50:36.001Z,38.48
2019-01-06T06:53:26.706Z,34.45
2019-01-06T06:56:25.089Z,40.67
2019-01-06T06:59:23.773Z,39.23
2019-01-06T07:03:01.611Z,32.58
2019-01-06T07:05:44.494Z,32.88
2019-01-06T07:08:32.639Z,23.27
2019-01-06T07:11:35.430Z,26.33
2019-01-06T07:14:23.634Z,30.92
2019-01-06T07:17:40.913Z,25.27
2019-01-06T07:20:27.818Z,30.97
2019-01-06T07:23:16.263Z,31.50
2019-01-06T07:26:14.553Z,21.65
2019-01-06T07:29:14.779Z,26.95
2019-01-06T07:32:03.275Z,24.67
2019-01-06T07:34:51.778Z,33.00
2019-01-06T07:37:40.105Z,46.05
2019-01-06T07:40:28.277Z,30.75
2019-01-06T07:43:29.662Z,41.00
2019-01-06T07:46:18.886Z,30.65
2019-01-06T07:49:23.201Z,33.45
2019-01-06T07:52:19.047Z,42.62
2019-01-06T07:55:17.936Z,46.37
2019-01-06T07:58:10.498Z,33.30
2019-01-06T08:00:59.247Z,38.58
2019-01-06T08:04:06.821Z,32.78
2019-01-06T08:07:11.276Z,36.13
2019-01-06T08:10:00.010Z,27.73
2019-01-06T08:12:48.057Z,33.83
2019-01-06T08:15:36.297Z,32.28
2019-01-06T08:18:24.243Z,35.17
2019-01-06T08:21:13.625Z,37.40
2019-01-06T08:24:08.715Z,26.17
2019-01-06T08:26:56.990Z,12.85
2019-01-06T08:30:01.504Z,10.08
2019-01-06T08:32:56.601Z,15.03
2019-01-06T08:35:45.185Z,13.80
2019-01-06T08:38:23.761Z,17.12
2019-01-06T08:41:12.967Z,16.95
2019-01-06T08:44:01.282Z,25.52
2019-01-06T08:47:00.007Z,14.23
2019-01-06T08:49:48.126Z,10.53
2019-01-06T08:52:36.164Z,11.95
2019-01-06T08:55:24.814Z,11.45
2019-01-06T08:58:25.763Z,16.23
2019-01-06T09:01:13.105Z,13.62
2019-01-06T09:04:17.727Z,12.13
2019-01-06T09:07:19.777Z,10.82
2019-01-06T09:10:13.348Z,14.73
2019-01-06T09:13:18.288Z,18.30
2019-01-06T09:16:23.934Z,12.60
2019-01-06T09:19:28.267Z,17.23
2019-01-06T09:22:20.519Z,18.90
2019-01-06T09:25:22.181Z,14.55
2019-01-06T09:28:27.118Z,15.60
2019-01-06T09:31:22.175Z,15.05
2019-01-06T09:34:26.535Z,12.15
2019-01-06T09:37:21.844Z,13.30
2019-01-06T09:40:27.180Z,10.93
2019-01-06T09:43:22.514Z,16.93
2019-01-06T09:46:05.650Z,18.27
2019-01-06T09:48:52.595Z,18.95
2019-01-06T09:51:41.188Z,16.20
2019-01-06T09:54:30.489Z,11.03
2019-01-06T09:57:19.689Z,17.50
2019-01-06T10:00:19.770Z,13.45
2019-01-06T10:03:13.097Z,14.87
2019-01-06T10:06:17.454Z,13.15
2019-01-06T10:09:06.722Z,20.15
2019-01-06T10:11:58.731Z,18.17
2019-01-06T10:15:06.436Z,16.30
2019-01-06T10:17:54.511Z,12.80
2019-01-06T10:20:43.359Z,12.75
2019-01-06T10:23:32.545Z,18.02
2019-01-06T10:26:21.706Z,19.98
2019-01-06T10:29:14.450Z,13.60
2019-01-06T10:32:06.959Z,15.70
2019-01-06T10:34:54.945Z,15.68
2019-01-06T10:37:43.308Z,16.95
2019-01-06T10:40:32.648Z,13.08
2019-01-06T10:43:30.697Z,17.67
2019-01-06T10:46:27.340Z,18.37
2019-01-06T10:49:15.619Z,15.48
2019-01-06T10:52:05.261Z,13.03
2019-01-06T10:54:57.398Z,14.45
2019-01-06T10:57:45.743Z,14.35
2019-01-06T11:00:50.067Z,15.28
2019-01-06T11:03:58.763Z,12.70
2019-01-06T11:06:48.412Z,12.65
2019-01-06T11:09:36.637Z,16.35
2019-01-06T11:12:32.247Z,11.30
2019-01-06T11:15:19.971Z,9.15
2019-01-06T11:18:21.143Z,9.95
2019-01-06T11:21:12.856Z,11.40
2019-01-06T11:24:02.017Z,11.08
2019-01-06T11:27:00.614Z,12.65
2019-01-06T11:30:01.887Z,11.83
2019-01-06T11:32:46.830Z,15.55
2019-01-06T11:35:25.917Z,11.85
2019-01-06T11:38:16.055Z,12.63
2019-01-06T11:41:07.871Z,14.73
2019-01-06T11:44:03.897Z,12.80
2019-01-06T11:46:51.443Z,13.58
2019-01-06T11:49:40.610Z,13.75
2019-01-06T11:52:28.433Z,15.90
2019-01-06T11:55:24.260Z,12.28
2019-01-06T11:58:19.881Z,14.70
2019-01-06T12:01:08.254Z,17.25
2019-01-06T12:03:56.287Z,12.80
2019-01-06T12:06:46.052Z,11.40
2019-01-06T12:09:52.457Z,19.90
2019-01-06T12:12:40.776Z,15.13
2019-01-06T12:15:41.297Z,12.73
2019-01-06T12:18:29.575Z,12.47
2019-01-06T12:21:18.925Z,12.13
2019-01-06T12:24:08.414Z,13.98
2019-01-06T12:26:56.446Z,21.77
2019-01-06T12:29:58.632Z,17.77
2019-01-06T12:32:53.937Z,12.55
2019-01-06T12:35:43.591Z,10.85
2019-01-06T12:38:31.685Z,11.55
2019-01-06T12:41:21.037Z,19.32
2019-01-06T12:44:09.162Z,17.45
2019-01-06T12:47:01.327Z,12.73
2019-01-06T12:49:56.609Z,14.63
2019-01-06T12:52:47.209Z,16.23
2019-01-06T12:55:39.258Z,19.52
2019-01-06T12:58:31.374Z,17.17
2019-01-06T13:01:29.461Z,16.73
2019-01-06T13:04:15.736Z,16.20
2019-01-06T13:07:04.273Z,11.10
2019-01-06T13:09:53.895Z,19.75
2019-01-06T13:12:42.028Z,13.58
2019-01-06T13:15:32.338Z,21.15
2019-01-06T13:18:24.893Z,18.27
2019-01-06T13:21:14.357Z,17.65
2019-01-06T13:24:13.241Z,20.60
2019-01-06T13:27:15.215Z,17.00
2019-01-06T13:29:55.380Z,14.93
2019-01-06T13:32:48.112Z,14.30
2019-01-06T13:35:40.350Z,18.05
2019-01-06T13:38:30.039Z,24.45
2019-01-06T13:41:26.877Z,20.17
2019-01-06T13:44:15.433Z,16.65
2019-01-06T13:47:19.658Z,17.15
2019-01-06T13:50:21.121Z,13.90
2019-01-06T13:53:20.221Z,18.42
2019-01-06T13:56:15.841Z,19.40
2019-01-06T13:59:06.648Z,16.17
2019-01-06T14:01:58.986Z,13.60
2019-01-06T14:04:52.035Z,18.23
2019-01-06T14:07:56.563Z,11.83
2019-01-06T14:10:52.185Z,11.05
2019-01-06T14:13:40.424Z,12.30
2019-01-06T14:16:29.836Z,15.48
2019-01-06T14:19:22.037Z,11.88
2019-01-06T14:22:27.044Z,13.68
2019-01-06T14:25:15.216Z,13.55
2019-01-06T14:28:03.167Z,13.40
2019-01-06T14:30:55.735Z,12.90
2019-01-06T14:33:42.536Z,12.78
2019-01-06T14:36:30.408Z,13.50
2019-01-06T14:39:20.411Z,14.18
2019-01-06T14:42:13.877Z,13.18
2019-01-06T14:45:01.811Z,14.47
2019-01-06T14:47:57.182Z,15.25
2019-01-06T14:50:46.551Z,21.85
2019-01-06T14:53:54.621Z,19.05
2019-01-06T14:56:42.465Z,13.78
2019-01-06T14:59:35.007Z,15.80
2019-01-06T15:02:22.756Z,20.65
2019-01-06T15:05:12.116Z,17.55
2019-01-06T15:08:20.329Z,17.50
2019-01-06T15:11:16.555Z,14.65
2019-01-06T15:14:18.495Z,16.40
2019-01-06T15:17:17.112Z,16.40
2019-01-06T15:20:05.385Z,15.72
2019-01-06T15:22:53.445Z,17.27
2019-01-06T15:25:54.618Z,15.25
2019-01-06T15:28:42.404Z,13.32
2019-01-06T15:31:37.700Z,15.00
2019-01-06T15:34:34.025Z,13.48
2019-01-06T15:37:22.373Z,17.10
2019-01-06T15:40:18.196Z,13.38
2019-01-06T15:43:07.364Z,16.75
2019-01-06T15:45:56.963Z,14.63
2019-01-06T15:48:52.375Z,20.70
2019-01-06T15:51:54.025Z,18.98
2019-01-06T15:54:44.630Z,14.47
2019-01-06T15:57:33.679Z,17.50
2019-01-06T16:00:21.529Z,18.35
2019-01-06T16:03:10.741Z,18.10
2019-01-06T16:05:59.341Z,19.50
2019-01-06T16:08:45.962Z,18.80
2019-01-06T16:11:40.656Z,23.45
2019-01-06T16:14:34.426Z,18.98
2019-01-06T16:17:36.806Z,20.37
2019-01-06T16:20:25.461Z,18.65
2019-01-06T16:23:13.707Z,14.78
2019-01-06T16:26:02.564Z,18.48
2019-01-06T16:28:55.321Z,17.87
2019-01-06T16:32:02.918Z,15.65
2019-01-06T16:34:58.636Z,14.07
2019-01-06T16:38:05.437Z,13.93
2019-01-06T16:40:54.702Z,20.65
2019-01-06T16:43:47.950Z,16.87
2019-01-06T16:46:49.916Z,12.18
2019-01-06T16:49:57.728Z,22.48
2019-01-06T16:52:45.967Z,19.25
2019-01-06T16:55:44.770Z,12.95
2019-01-06T16:58:33.623Z,20.37
2019-01-06T17:01:35.195Z,17.60
2019-01-06T17:04:37.971Z,18.25
2019-01-06T17:07:30.313Z,9.93
2019-01-06T17:10:20.824Z,15.58
2019-01-06T17:13:13.158Z,14.90
2019-01-06T17:16:02.736Z,7.45
2019-01-06T17:18:55.485Z,8.48
2019-01-06T17:21:44.855Z,8.50
2019-01-06T17:24:46.658Z,6.12
2019-01-06T17:27:43.781Z,6.67
2019-01-06T17:30:51.479Z,10.13
2019-01-06T17:33:49.858Z,6.70
2019-01-06T17:36:38.211Z,6.65
2019-01-06T17:39:23.083Z,7.10
2019-01-06T17:42:08.862Z,4.85
2019-01-06T17:45:00.131Z,5.92
2019-01-06T17:47:55.488Z,5.08
2019-01-06T17:50:44.043Z,11.55
2019-01-06T17:53:39.776Z,11.60
2019-01-06T17:56:42.447Z,7.95
2019-01-06T17:59:32.572Z,5.60
2019-01-06T18:02:37.280Z,4.35
2019-01-06T18:05:26.537Z,8.40
2019-01-06T18:08:27.286Z,7.53
2019-01-06T18:11:28.833Z,3.98
2019-01-06T18:14:33.670Z,6.25
2019-01-06T18:17:38.632Z,7.90
2019-01-06T18:20:28.188Z,6.33
2019-01-06T18:23:29.963Z,5.00
2019-01-06T18:26:18.506Z,6.55
2019-01-06T18:29:14.121Z,11.48
2019-01-06T18:32:12.403Z,16.25
2019-01-06T18:35:01.873Z,8.65
2019-01-06T18:37:54.915Z,5.83
2019-01-06T18:40:49.011Z,5.30
2019-01-06T18:43:30.841Z,8.65
2019-01-06T18:46:23.905Z,6.37
2019-01-06T18:49:19.421Z,8.65
2019-01-06T18:52:08.963Z,9.10
2019-01-06T18:54:56.817Z,9.25
2019-01-06T18:57:49.544Z,6.78
2019-01-06T19:00:57.215Z,7.20
2019-01-06T19:03:55.430Z,10.13
2019-01-06T19:06:43.694Z,7.65
2019-01-06T19:09:43.801Z,5.92
2019-01-06T19:12:39.525Z,5.42
2019-01-06T19:15:36.682Z,6.65
2019-01-06T19:18:33.524Z,6.85
2019-01-06T19:21:25.463Z,7.20
2019-01-06T19:24:14.030Z,5.80
2019-01-06T19:27:02.161Z,5.25
2019-01-06T19:29:50.612Z,9.38
2019-01-06T19:32:40.085Z,6.45
2019-01-06T19:35:41.849Z,9.28
2019-01-06T19:38:36.957Z,6.25
2019-01-06T19:41:26.428Z,4.90
2019-01-06T19:44:32.308Z,8.05
2019-01-06T19:47:28.648Z,6.37
2019-01-06T19:50:32.126Z,9.78
2019-01-06T19:53:16.591Z,4.58
2019-01-06T19:56:15.386Z,6.67
2019-01-06T19:59:02.607Z,10.32
2019-01-06T20:02:07.329Z,9.75
2019-01-06T20:05:10.483Z,10.98
2019-01-06T20:08:14.951Z,8.58
2019-01-06T20:11:10.250Z,8.70
2019-01-06T20:14:01.072Z,12.13
2019-01-06T20:16:53.212Z,9.63
2019-01-06T20:19:41.756Z,8.38
2019-01-06T20:22:40.491Z,9.68
2019-01-06T20:25:30.196Z,12.43
2019-01-06T20:28:35.680Z,14.00
2019-01-06T20:31:23.925Z,12.35
2019-01-06T20:34:19.140Z,13.10
2019-01-06T20:37:26.941Z,11.30
2019-01-06T20:40:16.112Z,9.78
2019-01-06T20:43:05.094Z,8.25
2019-01-06T20:45:56.696Z,9.45
2019-01-06T20:48:45.246Z,11.08
2019-01-06T20:51:39.743Z,11.73
2019-01-06T20:54:27.685Z,10.18
2019-01-06T20:57:16.231Z,11.65
2019-01-06T21:00:08.978Z,10.25
2019-01-06T21:02:58.554Z,8.20
2019-01-06T21:05:51.730Z,12.23
2019-01-06T21:08:39.707Z,9.35
2019-01-06T21:11:28.313Z,11.18
2019-01-06T21:14:30.703Z,8.70
2019-01-06T21:17:18.838Z,9.13
2019-01-06T21:20:12.196Z,8.83
2019-01-06T21:23:00.150Z,8.38
2019-01-06T21:26:04.873Z,9.55
2019-01-06T21:28:52.809Z,10.85
2019-01-06T21:31:40.949Z,11.65
2019-01-06T21:34:29.712Z,12.00
2019-01-06T21:37:17.558Z,11.15
2019-01-06T21:40:19.209Z,12.20
2019-01-06T21:43:03.854Z,11.45
2019-01-06T21:46:09.727Z,12.50
2019-01-06T21:49:08.931Z,12.78
2019-01-06T21:52:07.829Z,12.68
2019-01-06T21:55:15.637Z,13.83
2019-01-06T21:58:17.493Z,9.95
2019-01-06T22:01:12.624Z,14.13
2019-01-06T22:04:00.749Z,14.85
2019-01-06T22:06:50.223Z,15.13
2019-01-06T22:09:47.161Z,13.68
2019-01-06T22:12:35.748Z,10.85
2019-01-06T22:15:23.968Z,12.05
2019-01-06T22:18:15.084Z,10.82
2019-01-06T22:21:03.123Z,13.48
2019-01-06T22:24:01.616Z,13.83
2019-01-06T22:26:44.019Z,11.10
2019-01-06T22:29:48.438Z,13.38
2019-01-06T22:32:37.927Z,11.85
2019-01-06T22:35:30.801Z,17.92
2019-01-06T22:38:29.571Z,13.20
2019-01-06T22:41:31.234Z,11.55
2019-01-06T22:44:20.713Z,10.60
2019-01-06T22:47:20.118Z,12.55
2019-01-06T22:50:12.863Z,11.68
2019-01-06T22:53:12.365Z,11.45
2019-01-06T22:56:11.577Z,9.35
2019-01-06T22:58:59.619Z,8.95
2019-01-06T23:01:47.554Z,12.45
2019-01-06T23:04:29.859Z,6.97
2019-01-06T23:07:28.670Z,10.63
2019-01-06T23:10:28.995Z,9.43
2019-01-06T23:13:11.452Z,8.10
2019-01-06T23:15:59.644Z,10.13
2019-01-06T23:18:48.190Z,11.20
2019-01-06T23:21:55.684Z,9.98
2019-01-06T23:24:46.194Z,12.47
2019-01-06T23:27:47.849Z,11.22
2019-01-06T23:30:54.012Z,11.05
2019-01-06T23:33:58.634Z,9.50
2019-01-06T23:36:41.249Z,14.43
2019-01-06T23:39:30.864Z,9.43
2019-01-06T23:42:18.969Z,12.33
2019-01-06T23:45:09.152Z,10.63
2019-01-06T23:48:03.559Z,13.08
2019-01-06T23:50:56.610Z,10.82
2019-01-06T23:53:46.156Z,9.98
2019-01-06T23:56:41.292Z,14.23
2019-01-06T23:59:36.806Z,11.03
